KSUA/SUA METAR and TAF weather

Enter ICAO airport designator
Station Type Date Time Source
KSUA METAR 2020/01/24 20:47 UTC NOAA

KSUA 242047Z 12005G10KT 5SM VCSH FEW007 BKN045 23/16 A3002


Station Type Date Time Source
KSUA Decoded METAR 2020/01/24 20:47 UTC NOAA

Stuart, Witham Field Airport, FL, United States (KSUA) 27-10-54N 080-13-16W
Jan 24, 2020 - 03:47 PM EST / 2020.01.24 2047 UTC
Wind: from the ESE (120 degrees) at 6 MPH (5 KT) gusting to 12 MPH (10 KT):0
Visibility: 5 mile(s):0
Sky conditions: mostly cloudy
Weather: showers in the vicinity
Temperature: 73 F (23 C)
Dew Point: 60 F (16 C)
Relative Humidity: 64%
Pressure (altimeter): 30.02 in. Hg (1016 hPa)
ob: KSUA 242047Z 12005G10KT 5SM VCSH FEW007 BKN045 23/16 A3002
cycle: 21

Station Type Date Time Source
KSUA TAF 2020/01/24 18:42 UTC NOAA

TAF KSUA 241740Z 2418/2518 14007KT P6SM FEW030 BKN040 BKN070
FM250000 VRB03KT P6SM SCT045 BKN060
FM251000 29006KT P6SM FEW009 SCT012 SCT040
FM251600 32009KT P6SM FEW015 FEW040

Example: see airport list